sensor_id;sensor_type;location;lat;lon;timestamp;temperature;humidity
25550;DHT22;13444;50.562;7.262;2022-12-18T00:00:43;-6.70;99.90
25550;DHT22;13444;50.562;7.262;2022-12-18T00:03:09;-6.70;99.90
25550;DHT22;13444;50.562;7.262;2022-12-18T00:05:35;-6.70;99.90
25550;DHT22;13444;50.562;7.262;2022-12-18T00:08:01;-6.70;99.90
25550;DHT22;13444;50.562;7.262;2022-12-18T00:10:27;-6.70;99.90
25550;DHT22;13444;50.562;7.262;2022-12-18T00:12:53;-6.70;99.90
25550;DHT22;13444;50.562;7.262;2022-12-18T00:15:19;-6.80;99.90
25550;DHT22;13444;50.562;7.262;2022-12-18T00:17:44;-6.80;99.90
25550;DHT22;13444;50.562;7.262;2022-12-18T00:20:10;-6.80;99.90
25550;DHT22;13444;50.562;7.262;2022-12-18T00:22:36;-6.80;99.90
25550;DHT22;13444;50.562;7.262;2022-12-18T00:25:02;-6.80;99.90
25550;DHT22;13444;50.562;7.262;2022-12-18T00:27:27;-6.80;99.90
25550;DHT22;13444;50.562;7.262;2022-12-18T00:29:53;-6.90;99.90
25550;DHT22;13444;50.562;7.262;2022-12-18T00:32:18;-6.90;99.90
25550;DHT22;13444;50.562;7.262;2022-12-18T00:34:44;-6.90;99.90
25550;DHT22;13444;50.562;7.262;2022-12-18T00:37:09;-6.90;99.90
25550;DHT22;13444;50.562;7.262;2022-12-18T00:39:35;-6.90;99.90
25550;DHT22;13444;50.562;7.262;2022-12-18T00:42:00;-7.00;99.90
25550;DHT22;13444;50.562;7.262;2022-12-18T00:44:44;-7.00;99.90
25550;DHT22;13444;50.562;7.262;2022-12-18T00:47:10;-7.00;99.90
25550;DHT22;13444;50.562;7.262;2022-12-18T00:49:35;-7.00;99.90
25550;DHT22;13444;50.562;7.262;2022-12-18T00:52:01;-7.00;99.90
25550;DHT22;13444;50.562;7.262;2022-12-18T00:54:26;-7.00;99.90
25550;DHT22;13444;50.562;7.262;2022-12-18T00:56:52;-7.10;99.90
25550;DHT22;13444;50.562;7.262;2022-12-18T00:59:18;-7.10;99.90
25550;DHT22;13444;50.562;7.262;2022-12-18T01:01:44;-7.10;99.90
25550;DHT22;13444;50.562;7.262;2022-12-18T01:04:10;-7.10;99.90
25550;DHT22;13444;50.562;7.262;2022-12-18T01:06:35;-7.10;99.90
25550;DHT22;13444;50.562;7.262;2022-12-18T01:09:01;-7.10;99.90
25550;DHT22;13444;50.562;7.262;2022-12-18T01:11:27;-7.10;99.90
25550;DHT22;13444;50.562;7.262;2022-12-18T01:13:53;-7.20;99.90
25550;DHT22;13444;50.562;7.262;2022-12-18T01:16:19;-7.20;99.90
25550;DHT22;13444;50.562;7.262;2022-12-18T01:18:45;-7.20;99.90
25550;DHT22;13444;50.562;7.262;2022-12-18T01:21:13;-7.20;99.90
25550;DHT22;13444;50.562;7.262;2022-12-18T01:23:39;-7.20;99.90
25550;DHT22;13444;50.562;7.262;2022-12-18T01:26:15;-7.20;99.90
25550;DHT22;13444;50.562;7.262;2022-12-18T01:28:41;-7.20;99.90
25550;DHT22;13444;50.562;7.262;2022-12-18T01:31:19;-7.20;99.90
25550;DHT22;13444;50.562;7.262;2022-12-18T01:33:45;-7.20;99.90
25550;DHT22;13444;50.562;7.262;2022-12-18T01:36:20;-7.20;99.90
25550;DHT22;13444;50.562;7.262;2022-12-18T01:38:46;-7.20;99.90
25550;DHT22;13444;50.562;7.262;2022-12-18T01:41:13;-7.30;99.90
25550;DHT22;13444;50.562;7.262;2022-12-18T01:43:47;-7.30;99.90
25550;DHT22;13444;50.562;7.262;2022-12-18T01:46:14;-7.30;99.90
25550;DHT22;13444;50.562;7.262;2022-12-18T01:48:40;-7.30;99.90
25550;DHT22;13444;50.562;7.262;2022-12-18T01:51:08;-7.30;99.90
25550;DHT22;13444;50.562;7.262;2022-12-18T01:53:36;-7.30;99.90
25550;DHT22;13444;50.562;7.262;2022-12-18T01:56:02;-7.40;99.90
25550;DHT22;13444;50.562;7.262;2022-12-18T01:58:38;-7.40;99.90
25550;DHT22;13444;50.562;7.262;2022-12-18T02:01:04;-7.30;99.90
25550;DHT22;13444;50.562;7.262;2022-12-18T02:03:30;-7.30;99.90
25550;DHT22;13444;50.562;7.262;2022-12-18T02:08:51;-7.40;99.90
25550;DHT22;13444;50.562;7.262;2022-12-18T02:14:23;-7.40;99.90
25550;DHT22;13444;50.562;7.262;2022-12-18T02:17:13;-7.40;99.90
25550;DHT22;13444;50.562;7.262;2022-12-18T02:23:00;-7.40;99.90
25550;DHT22;13444;50.562;7.262;2022-12-18T02:28:06;-7.40;99.90
25550;DHT22;13444;50.562;7.262;2022-12-18T02:30:35;-7.40;99.90
25550;DHT22;13444;50.562;7.262;2022-12-18T02:33:04;-7.40;99.90
25550;DHT22;13444;50.562;7.262;2022-12-18T02:35:30;-7.50;99.90
25550;DHT22;13444;50.562;7.262;2022-12-18T02:37:57;-7.50;99.90
25550;DHT22;13444;50.562;7.262;2022-12-18T02:40:25;-7.50;99.90
25550;DHT22;13444;50.562;7.262;2022-12-18T02:42:51;-7.50;99.90
25550;DHT22;13444;50.562;7.262;2022-12-18T02:45:17;-7.50;99.90
25550;DHT22;13444;50.562;7.262;2022-12-18T02:47:46;-7.60;99.90
25550;DHT22;13444;50.562;7.262;2022-12-18T02:50:37;-7.60;99.90
25550;DHT22;13444;50.562;7.262;2022-12-18T03:01:28;-7.60;99.90
25550;DHT22;13444;50.562;7.262;2022-12-18T03:03:59;-7.60;99.90
25550;DHT22;13444;50.562;7.262;2022-12-18T03:06:35;-7.60;99.90
25550;DHT22;13444;50.562;7.262;2022-12-18T03:09:06;-7.60;99.90
25550;DHT22;13444;50.562;7.262;2022-12-18T03:11:34;-7.60;99.90
25550;DHT22;13444;50.562;7.262;2022-12-18T03:14:21;-7.60;99.90
25550;DHT22;13444;50.562;7.262;2022-12-18T03:16:54;-7.60;99.90
25550;DHT22;13444;50.562;7.262;2022-12-18T03:19:24;-7.70;99.90
25550;DHT22;13444;50.562;7.262;2022-12-18T03:21:54;-7.60;99.90
25550;DHT22;13444;50.562;7.262;2022-12-18T03:24:21;-7.70;99.90
25550;DHT22;13444;50.562;7.262;2022-12-18T03:26:52;-7.70;99.90
25550;DHT22;13444;50.562;7.262;2022-12-18T03:29:23;-7.70;99.90
25550;DHT22;13444;50.562;7.262;2022-12-18T03:31:54;-7.70;99.90
25550;DHT22;13444;50.562;7.262;2022-12-18T03:34:29;-7.70;99.90
25550;DHT22;13444;50.562;7.262;2022-12-18T03:36:56;-7.70;99.90
25550;DHT22;13444;50.562;7.262;2022-12-18T03:39:21;-7.70;99.90
25550;DHT22;13444;50.562;7.262;2022-12-18T03:44:39;-7.80;99.90
25550;DHT22;13444;50.562;7.262;2022-12-18T03:52:22;-7.80;99.90
25550;DHT22;13444;50.562;7.262;2022-12-18T03:54:51;-7.90;99.90
25550;DHT22;13444;50.562;7.262;2022-12-18T03:57:22;-7.80;99.90
25550;DHT22;13444;50.562;7.262;2022-12-18T03:59:51;-7.80;99.90
25550;DHT22;13444;50.562;7.262;2022-12-18T04:02:18;-7.80;99.90
25550;DHT22;13444;50.562;7.262;2022-12-18T04:04:47;-7.80;99.90
25550;DHT22;13444;50.562;7.262;2022-12-18T04:07:14;-7.80;99.90
25550;DHT22;13444;50.562;7.262;2022-12-18T04:09:41;-7.80;99.90
25550;DHT22;13444;50.562;7.262;2022-12-18T04:12:08;-7.80;99.90
25550;DHT22;13444;50.562;7.262;2022-12-18T04:14:34;-7.80;99.90
25550;DHT22;13444;50.562;7.262;2022-12-18T04:17:01;-7.70;99.90
25550;DHT22;13444;50.562;7.262;2022-12-18T04:19:27;-7.80;99.90
25550;DHT22;13444;50.562;7.262;2022-12-18T04:21:53;-7.80;99.90
25550;DHT22;13444;50.562;7.262;2022-12-18T04:24:19;-7.80;99.90
25550;DHT22;13444;50.562;7.262;2022-12-18T04:26:45;-7.80;99.90
25550;DHT22;13444;50.562;7.262;2022-12-18T04:29:11;-7.80;99.90
25550;DHT22;13444;50.562;7.262;2022-12-18T04:31:36;-7.80;99.90
25550;DHT22;13444;50.562;7.262;2022-12-18T04:34:02;-7.80;99.90
25550;DHT22;13444;50.562;7.262;2022-12-18T04:36:28;-7.80;99.90
25550;DHT22;13444;50.562;7.262;2022-12-18T04:38:54;-7.80;99.90
25550;DHT22;13444;50.562;7.262;2022-12-18T04:41:19;-7.70;99.90
25550;DHT22;13444;50.562;7.262;2022-12-18T04:43:45;-7.70;99.90
25550;DHT22;13444;50.562;7.262;2022-12-18T04:46:10;-7.70;99.90
25550;DHT22;13444;50.562;7.262;2022-12-18T04:48:36;-7.60;99.90
25550;DHT22;13444;50.562;7.262;2022-12-18T04:51:03;-7.70;99.90
25550;DHT22;13444;50.562;7.262;2022-12-18T04:53:28;-7.60;99.90
25550;DHT22;13444;50.562;7.262;2022-12-18T04:56:14;-7.60;99.90
25550;DHT22;13444;50.562;7.262;2022-12-18T04:58:41;-7.60;99.90
25550;DHT22;13444;50.562;7.262;2022-12-18T05:01:07;-7.60;99.90
25550;DHT22;13444;50.562;7.262;2022-12-18T05:03:34;-7.70;99.90
25550;DHT22;13444;50.562;7.262;2022-12-18T05:06:00;-7.70;99.90
25550;DHT22;13444;50.562;7.262;2022-12-18T05:08:25;-7.70;99.90
25550;DHT22;13444;50.562;7.262;2022-12-18T05:11:04;-7.70;99.90
25550;DHT22;13444;50.562;7.262;2022-12-18T05:13:31;-7.70;99.90
25550;DHT22;13444;50.562;7.262;2022-12-18T05:15:57;-7.80;99.90
25550;DHT22;13444;50.562;7.262;2022-12-18T05:18:23;-7.80;99.90
25550;DHT22;13444;50.562;7.262;2022-12-18T05:20:50;-7.80;99.90
25550;DHT22;13444;50.562;7.262;2022-12-18T05:23:16;-7.90;99.90
25550;DHT22;13444;50.562;7.262;2022-12-18T05:25:42;-7.80;99.90
25550;DHT22;13444;50.562;7.262;2022-12-18T05:28:07;-7.80;99.90
25550;DHT22;13444;50.562;7.262;2022-12-18T05:30:33;-7.80;99.90
25550;DHT22;13444;50.562;7.262;2022-12-18T05:32:58;-7.80;99.90
25550;DHT22;13444;50.562;7.262;2022-12-18T05:35:24;-7.80;99.90
25550;DHT22;13444;50.562;7.262;2022-12-18T05:37:50;-7.90;99.90
25550;DHT22;13444;50.562;7.262;2022-12-18T05:40:15;-7.90;99.90
25550;DHT22;13444;50.562;7.262;2022-12-18T05:42:41;-7.90;99.90
25550;DHT22;13444;50.562;7.262;2022-12-18T05:45:07;-7.90;99.90
25550;DHT22;13444;50.562;7.262;2022-12-18T05:47:33;-7.90;99.90
25550;DHT22;13444;50.562;7.262;2022-12-18T05:49:58;-7.90;99.90
25550;DHT22;13444;50.562;7.262;2022-12-18T05:52:24;-7.90;99.90
25550;DHT22;13444;50.562;7.262;2022-12-18T05:54:49;-7.90;99.90
25550;DHT22;13444;50.562;7.262;2022-12-18T05:57:15;-7.90;99.90
25550;DHT22;13444;50.562;7.262;2022-12-18T05:59:40;-7.90;99.90
25550;DHT22;13444;50.562;7.262;2022-12-18T06:02:06;-7.80;99.90
25550;DHT22;13444;50.562;7.262;2022-12-18T06:04:32;-7.80;99.90
25550;DHT22;13444;50.562;7.262;2022-12-18T06:06:58;-7.80;99.90
25550;DHT22;13444;50.562;7.262;2022-12-18T06:09:23;-7.80;99.90
25550;DHT22;13444;50.562;7.262;2022-12-18T06:11:51;-7.80;99.90
25550;DHT22;13444;50.562;7.262;2022-12-18T06:14:17;-7.70;99.90
25550;DHT22;13444;50.562;7.262;2022-12-18T06:16:42;-7.70;99.90
25550;DHT22;13444;50.562;7.262;2022-12-18T06:19:14;-7.70;99.90
25550;DHT22;13444;50.562;7.262;2022-12-18T06:21:40;-7.70;99.90
25550;DHT22;13444;50.562;7.262;2022-12-18T06:24:06;-7.60;99.90
25550;DHT22;13444;50.562;7.262;2022-12-18T06:26:32;-7.60;99.90
25550;DHT22;13444;50.562;7.262;2022-12-18T06:28:58;-7.60;99.90
25550;DHT22;13444;50.562;7.262;2022-12-18T06:31:24;-7.60;99.90
25550;DHT22;13444;50.562;7.262;2022-12-18T06:33:50;-7.60;99.90
25550;DHT22;13444;50.562;7.262;2022-12-18T06:36:15;-7.50;99.90
25550;DHT22;13444;50.562;7.262;2022-12-18T06:38:43;-7.50;99.90
25550;DHT22;13444;50.562;7.262;2022-12-18T06:41:18;-7.50;99.90
25550;DHT22;13444;50.562;7.262;2022-12-18T06:43:44;-7.40;99.90
25550;DHT22;13444;50.562;7.262;2022-12-18T06:46:11;-7.40;99.90
25550;DHT22;13444;50.562;7.262;2022-12-18T06:48:36;-7.30;99.90
25550;DHT22;13444;50.562;7.262;2022-12-18T06:51:02;-7.40;99.90
25550;DHT22;13444;50.562;7.262;2022-12-18T06:53:28;-7.40;99.90
25550;DHT22;13444;50.562;7.262;2022-12-18T06:56:05;-7.50;99.90
25550;DHT22;13444;50.562;7.262;2022-12-18T06:58:31;-7.60;99.90
25550;DHT22;13444;50.562;7.262;2022-12-18T07:01:04;-7.50;99.90
25550;DHT22;13444;50.562;7.262;2022-12-18T07:03:31;-7.60;99.90
25550;DHT22;13444;50.562;7.262;2022-12-18T07:05:56;-7.60;99.90
25550;DHT22;13444;50.562;7.262;2022-12-18T07:08:22;-7.60;99.90
25550;DHT22;13444;50.562;7.262;2022-12-18T07:10:48;-7.60;99.90
25550;DHT22;13444;50.562;7.262;2022-12-18T07:13:16;-7.60;99.90
25550;DHT22;13444;50.562;7.262;2022-12-18T07:15:43;-7.70;99.90
25550;DHT22;13444;50.562;7.262;2022-12-18T07:18:08;-7.70;99.90
25550;DHT22;13444;50.562;7.262;2022-12-18T07:20:34;-7.70;99.90
25550;DHT22;13444;50.562;7.262;2022-12-18T07:23:02;-7.70;99.90
25550;DHT22;13444;50.562;7.262;2022-12-18T07:25:28;-7.70;99.90
25550;DHT22;13444;50.562;7.262;2022-12-18T07:27:54;-7.70;99.90
25550;DHT22;13444;50.562;7.262;2022-12-18T07:30:20;-7.70;99.90
25550;DHT22;13444;50.562;7.262;2022-12-18T07:32:45;-7.70;99.90
25550;DHT22;13444;50.562;7.262;2022-12-18T07:35:11;-7.70;99.90
25550;DHT22;13444;50.562;7.262;2022-12-18T07:37:36;-7.70;99.90
25550;DHT22;13444;50.562;7.262;2022-12-18T07:40:02;-7.70;99.90
25550;DHT22;13444;50.562;7.262;2022-12-18T07:42:27;-7.70;99.90
25550;DHT22;13444;50.562;7.262;2022-12-18T07:44:57;-7.70;99.90
25550;DHT22;13444;50.562;7.262;2022-12-18T07:47:22;-7.60;99.90
25550;DHT22;13444;50.562;7.262;2022-12-18T07:49:49;-7.50;99.90
25550;DHT22;13444;50.562;7.262;2022-12-18T07:52:14;-7.40;99.90
25550;DHT22;13444;50.562;7.262;2022-12-18T07:54:40;-7.40;99.90
25550;DHT22;13444;50.562;7.262;2022-12-18T07:57:06;-7.50;99.90
25550;DHT22;13444;50.562;7.262;2022-12-18T07:59:32;-7.50;99.90
25550;DHT22;13444;50.562;7.262;2022-12-18T08:01:58;-7.50;99.90
25550;DHT22;13444;50.562;7.262;2022-12-18T08:04:24;-7.50;99.90
25550;DHT22;13444;50.562;7.262;2022-12-18T08:06:49;-7.50;99.90
25550;DHT22;13444;50.562;7.262;2022-12-18T08:09:15;-7.40;99.90
25550;DHT22;13444;50.562;7.262;2022-12-18T08:11:40;-7.40;99.90
25550;DHT22;13444;50.562;7.262;2022-12-18T08:14:06;-7.20;99.90
25550;DHT22;13444;50.562;7.262;2022-12-18T08:16:32;-7.20;99.90
25550;DHT22;13444;50.562;7.262;2022-12-18T08:18:57;-7.10;99.90
25550;DHT22;13444;50.562;7.262;2022-12-18T08:21:28;-7.00;99.90
25550;DHT22;13444;50.562;7.262;2022-12-18T08:23:55;-7.00;99.90
25550;DHT22;13444;50.562;7.262;2022-12-18T08:26:21;-7.00;99.90
25550;DHT22;13444;50.562;7.262;2022-12-18T08:28:48;-7.00;99.90
25550;DHT22;13444;50.562;7.262;2022-12-18T08:31:14;-7.00;99.90
25550;DHT22;13444;50.562;7.262;2022-12-18T08:33:41;-7.00;99.90
25550;DHT22;13444;50.562;7.262;2022-12-18T08:36:08;-7.00;99.90
25550;DHT22;13444;50.562;7.262;2022-12-18T08:38:34;-7.00;99.90
25550;DHT22;13444;50.562;7.262;2022-12-18T08:41:05;-7.00;99.90
25550;DHT22;13444;50.562;7.262;2022-12-18T08:43:31;-6.90;99.90
25550;DHT22;13444;50.562;7.262;2022-12-18T08:46:15;-6.80;99.90
25550;DHT22;13444;50.562;7.262;2022-12-18T08:48:40;-6.70;99.90
25550;DHT22;13444;50.562;7.262;2022-12-18T08:51:06;-6.60;99.90
25550;DHT22;13444;50.562;7.262;2022-12-18T08:53:32;-6.60;99.90
25550;DHT22;13444;50.562;7.262;2022-12-18T08:56:00;-6.60;99.90
25550;DHT22;13444;50.562;7.262;2022-12-18T08:58:25;-6.60;99.90
25550;DHT22;13444;50.562;7.262;2022-12-18T09:00:51;-6.60;99.90
25550;DHT22;13444;50.562;7.262;2022-12-18T09:03:18;-6.60;99.90
25550;DHT22;13444;50.562;7.262;2022-12-18T09:05:46;-6.50;99.90
25550;DHT22;13444;50.562;7.262;2022-12-18T09:08:12;-6.40;99.90
25550;DHT22;13444;50.562;7.262;2022-12-18T09:10:48;-6.30;99.90
25550;DHT22;13444;50.562;7.262;2022-12-18T09:13:15;-6.00;99.90
25550;DHT22;13444;50.562;7.262;2022-12-18T09:15:42;-5.90;99.90
25550;DHT22;13444;50.562;7.262;2022-12-18T09:18:08;-5.70;99.90
25550;DHT22;13444;50.562;7.262;2022-12-18T09:20:35;-5.60;99.90
25550;DHT22;13444;50.562;7.262;2022-12-18T09:23:01;-5.50;99.90
25550;DHT22;13444;50.562;7.262;2022-12-18T09:25:29;-5.40;99.90
25550;DHT22;13444;50.562;7.262;2022-12-18T09:27:59;-5.30;99.90
25550;DHT22;13444;50.562;7.262;2022-12-18T09:30:25;-5.20;99.90
25550;DHT22;13444;50.562;7.262;2022-12-18T09:32:54;-5.20;99.90
25550;DHT22;13444;50.562;7.262;2022-12-18T09:35:20;-5.10;99.90
25550;DHT22;13444;50.562;7.262;2022-12-18T09:37:48;-4.80;99.90
25550;DHT22;13444;50.562;7.262;2022-12-18T09:40:20;-4.50;99.90
25550;DHT22;13444;50.562;7.262;2022-12-18T09:42:52;-4.30;99.90
25550;DHT22;13444;50.562;7.262;2022-12-18T09:45:22;-4.00;99.90
25550;DHT22;13444;50.562;7.262;2022-12-18T09:47:49;-3.90;99.90
25550;DHT22;13444;50.562;7.262;2022-12-18T09:50:28;-3.90;99.90
25550;DHT22;13444;50.562;7.262;2022-12-18T09:52:57;-4.10;99.90
25550;DHT22;13444;50.562;7.262;2022-12-18T09:55:44;-4.20;99.90
25550;DHT22;13444;50.562;7.262;2022-12-18T09:58:24;-4.30;99.90
25550;DHT22;13444;50.562;7.262;2022-12-18T10:00:53;-4.30;99.90
25550;DHT22;13444;50.562;7.262;2022-12-18T10:03:18;-4.40;99.90
25550;DHT22;13444;50.562;7.262;2022-12-18T10:17:03;-4.20;99.90
25550;DHT22;13444;50.562;7.262;2022-12-18T10:19:44;-4.10;99.90
25550;DHT22;13444;50.562;7.262;2022-12-18T10:25:38;-3.90;99.90
25550;DHT22;13444;50.562;7.262;2022-12-18T10:28:10;-3.90;99.90
25550;DHT22;13444;50.562;7.262;2022-12-18T10:30:38;-3.70;99.90
25550;DHT22;13444;50.562;7.262;2022-12-18T10:33:04;-3.50;99.90
25550;DHT22;13444;50.562;7.262;2022-12-18T10:35:30;-3.40;99.90
25550;DHT22;13444;50.562;7.262;2022-12-18T10:41:23;-3.40;99.90
25550;DHT22;13444;50.562;7.262;2022-12-18T10:44:19;-3.40;99.90
25550;DHT22;13444;50.562;7.262;2022-12-18T10:46:50;-3.30;99.90
25550;DHT22;13444;50.562;7.262;2022-12-18T10:49:27;-3.30;99.90
25550;DHT22;13444;50.562;7.262;2022-12-18T10:54:48;-3.30;99.90
25550;DHT22;13444;50.562;7.262;2022-12-18T10:57:34;-3.30;99.90
25550;DHT22;13444;50.562;7.262;2022-12-18T11:00:24;-3.30;99.90
25550;DHT22;13444;50.562;7.262;2022-12-18T11:02:50;-3.30;99.90
25550;DHT22;13444;50.562;7.262;2022-12-18T11:05:42;-3.30;99.90
25550;DHT22;13444;50.562;7.262;2022-12-18T11:08:20;-3.30;99.90
25550;DHT22;13444;50.562;7.262;2022-12-18T11:10:48;-3.20;99.90
25550;DHT22;13444;50.562;7.262;2022-12-18T11:13:22;-3.10;99.90
25550;DHT22;13444;50.562;7.262;2022-12-18T11:15:48;-3.10;99.90
25550;DHT22;13444;50.562;7.262;2022-12-18T11:18:35;-3.00;99.90
25550;DHT22;13444;50.562;7.262;2022-12-18T11:23:27;-2.90;99.90
25550;DHT22;13444;50.562;7.262;2022-12-18T11:25:58;-2.90;99.90
25550;DHT22;13444;50.562;7.262;2022-12-18T11:28:49;-2.90;99.90
25550;DHT22;13444;50.562;7.262;2022-12-18T11:36:45;-3.00;99.90
25550;DHT22;13444;50.562;7.262;2022-12-18T11:39:33;-3.00;99.90
25550;DHT22;13444;50.562;7.262;2022-12-18T11:42:24;-3.00;99.90
25550;DHT22;13444;50.562;7.262;2022-12-18T11:44:51;-3.00;99.90
25550;DHT22;13444;50.562;7.262;2022-12-18T11:47:29;-3.10;99.90
25550;DHT22;13444;50.562;7.262;2022-12-18T11:50:05;-3.10;99.90
25550;DHT22;13444;50.562;7.262;2022-12-18T11:52:40;-3.10;99.90
25550;DHT22;13444;50.562;7.262;2022-12-18T11:55:15;-3.10;99.90
25550;DHT22;13444;50.562;7.262;2022-12-18T11:58:05;-3.10;99.90
25550;DHT22;13444;50.562;7.262;2022-12-18T12:00:38;-3.10;99.90
25550;DHT22;13444;50.562;7.262;2022-12-18T12:06:23;-3.10;99.90
25550;DHT22;13444;50.562;7.262;2022-12-18T12:09:12;-3.10;99.90
25550;DHT22;13444;50.562;7.262;2022-12-18T12:14:34;-3.00;99.90
25550;DHT22;13444;50.562;7.262;2022-12-18T12:17:11;-3.00;99.90
25550;DHT22;13444;50.562;7.262;2022-12-18T12:23:04;-3.10;99.90
25550;DHT22;13444;50.562;7.262;2022-12-18T12:25:36;-3.10;99.90
25550;DHT22;13444;50.562;7.262;2022-12-18T12:28:20;-3.00;99.90
25550;DHT22;13444;50.562;7.262;2022-12-18T12:34:26;-2.90;99.90
25550;DHT22;13444;50.562;7.262;2022-12-18T12:39:36;-2.90;99.90
25550;DHT22;13444;50.562;7.262;2022-12-18T12:42:05;-2.80;99.90
25550;DHT22;13444;50.562;7.262;2022-12-18T12:44:56;-2.70;99.90
25550;DHT22;13444;50.562;7.262;2022-12-18T12:47:26;-2.70;99.90
25550;DHT22;13444;50.562;7.262;2022-12-18T12:49:54;-2.80;99.90
25550;DHT22;13444;50.562;7.262;2022-12-18T12:54:56;-2.80;99.90
25550;DHT22;13444;50.562;7.262;2022-12-18T12:57:37;-2.70;99.90
25550;DHT22;13444;50.562;7.262;2022-12-18T13:00:10;-2.70;99.90
25550;DHT22;13444;50.562;7.262;2022-12-18T13:02:39;-2.70;99.90
25550;DHT22;13444;50.562;7.262;2022-12-18T13:08:10;-2.60;99.90
25550;DHT22;13444;50.562;7.262;2022-12-18T13:10:39;-2.50;99.90
25550;DHT22;13444;50.562;7.262;2022-12-18T13:13:10;-2.50;99.90
25550;DHT22;13444;50.562;7.262;2022-12-18T13:15:45;-2.50;99.90
25550;DHT22;13444;50.562;7.262;2022-12-18T13:20:47;-2.50;99.90
25550;DHT22;13444;50.562;7.262;2022-12-18T13:23:26;-2.50;99.90
25550;DHT22;13444;50.562;7.262;2022-12-18T13:25:56;-2.40;99.90
25550;DHT22;13444;50.562;7.262;2022-12-18T13:34:20;-2.40;99.90
25550;DHT22;13444;50.562;7.262;2022-12-18T13:36:46;-2.40;99.90
25550;DHT22;13444;50.562;7.262;2022-12-18T13:41:50;-2.40;99.90
25550;DHT22;13444;50.562;7.262;2022-12-18T13:44:37;-2.40;99.90
25550;DHT22;13444;50.562;7.262;2022-12-18T13:47:05;-2.40;99.90
25550;DHT22;13444;50.562;7.262;2022-12-18T13:49:49;-2.40;99.90
25550;DHT22;13444;50.562;7.262;2022-12-18T13:52:25;-2.40;99.90
25550;DHT22;13444;50.562;7.262;2022-12-18T13:54:53;-2.50;99.90
25550;DHT22;13444;50.562;7.262;2022-12-18T13:57:39;-2.50;99.90
25550;DHT22;13444;50.562;7.262;2022-12-18T14:00:26;-2.40;99.90
25550;DHT22;13444;50.562;7.262;2022-12-18T14:02:53;-2.40;99.90
25550;DHT22;13444;50.562;7.262;2022-12-18T14:05:28;-2.30;99.90
25550;DHT22;13444;50.562;7.262;2022-12-18T14:07:58;-2.30;99.90
25550;DHT22;13444;50.562;7.262;2022-12-18T14:10:26;-2.30;99.90
25550;DHT22;13444;50.562;7.262;2022-12-18T14:12:51;-2.30;99.90
25550;DHT22;13444;50.562;7.262;2022-12-18T14:15:33;-2.30;99.90
25550;DHT22;13444;50.562;7.262;2022-12-18T14:21:23;-2.20;99.90
25550;DHT22;13444;50.562;7.262;2022-12-18T14:24:13;-2.20;99.90
25550;DHT22;13444;50.562;7.262;2022-12-18T14:26:40;-2.20;99.90
25550;DHT22;13444;50.562;7.262;2022-12-18T14:32:07;-2.20;99.90
25550;DHT22;13444;50.562;7.262;2022-12-18T14:34:34;-2.20;99.90
25550;DHT22;13444;50.562;7.262;2022-12-18T14:37:00;-2.20;99.90
25550;DHT22;13444;50.562;7.262;2022-12-18T14:39:25;-2.20;99.90
25550;DHT22;13444;50.562;7.262;2022-12-18T14:41:52;-2.20;99.90
25550;DHT22;13444;50.562;7.262;2022-12-18T14:44:18;-2.20;99.90
25550;DHT22;13444;50.562;7.262;2022-12-18T14:46:45;-2.20;99.90
25550;DHT22;13444;50.562;7.262;2022-12-18T14:49:24;-2.20;99.90
25550;DHT22;13444;50.562;7.262;2022-12-18T14:51:59;-2.20;99.90
25550;DHT22;13444;50.562;7.262;2022-12-18T14:54:27;-2.20;99.90
25550;DHT22;13444;50.562;7.262;2022-12-18T14:59:30;-2.20;99.90
25550;DHT22;13444;50.562;7.262;2022-12-18T15:04:38;-2.20;99.90
25550;DHT22;13444;50.562;7.262;2022-12-18T15:07:18;-2.30;99.90
25550;DHT22;13444;50.562;7.262;2022-12-18T15:10:21;-2.30;99.90
25550;DHT22;13444;50.562;7.262;2022-12-18T15:13:05;-2.30;99.90
25550;DHT22;13444;50.562;7.262;2022-12-18T15:23:26;-2.30;99.90
25550;DHT22;13444;50.562;7.262;2022-12-18T15:26:04;-2.30;99.90
25550;DHT22;13444;50.562;7.262;2022-12-18T15:28:46;-2.30;99.90
25550;DHT22;13444;50.562;7.262;2022-12-18T15:36:09;-2.20;99.90
25550;DHT22;13444;50.562;7.262;2022-12-18T15:38:35;-2.20;99.90
25550;DHT22;13444;50.562;7.262;2022-12-18T15:41:00;-2.20;99.90
25550;DHT22;13444;50.562;7.262;2022-12-18T15:43:30;-2.30;99.90
25550;DHT22;13444;50.562;7.262;2022-12-18T15:46:21;-2.30;99.90
25550;DHT22;13444;50.562;7.262;2022-12-18T15:48:48;-2.30;99.90
25550;DHT22;13444;50.562;7.262;2022-12-18T15:53:46;-2.40;99.90
25550;DHT22;13444;50.562;7.262;2022-12-18T15:56:14;-2.40;99.90
25550;DHT22;13444;50.562;7.262;2022-12-18T15:58:59;-2.40;99.90
25550;DHT22;13444;50.562;7.262;2022-12-18T16:01:27;-2.40;99.90
25550;DHT22;13444;50.562;7.262;2022-12-18T16:03:53;-2.40;99.90
25550;DHT22;13444;50.562;7.262;2022-12-18T16:06:19;-2.40;99.90
25550;DHT22;13444;50.562;7.262;2022-12-18T16:08:48;-2.40;99.90
25550;DHT22;13444;50.562;7.262;2022-12-18T16:13:45;-2.40;99.90
25550;DHT22;13444;50.562;7.262;2022-12-18T16:16:11;-2.40;99.90
25550;DHT22;13444;50.562;7.262;2022-12-18T16:18:36;-2.40;99.90
25550;DHT22;13444;50.562;7.262;2022-12-18T16:21:02;-2.40;99.90
25550;DHT22;13444;50.562;7.262;2022-12-18T16:23:28;-2.40;99.90
25550;DHT22;13444;50.562;7.262;2022-12-18T16:25:53;-2.40;99.90
25550;DHT22;13444;50.562;7.262;2022-12-18T16:28:19;-2.50;99.90
25550;DHT22;13444;50.562;7.262;2022-12-18T16:30:44;-2.50;99.90
25550;DHT22;13444;50.562;7.262;2022-12-18T16:33:10;-2.50;99.90
25550;DHT22;13444;50.562;7.262;2022-12-18T16:35:36;-2.50;99.90
25550;DHT22;13444;50.562;7.262;2022-12-18T16:38:02;-2.50;99.90
25550;DHT22;13444;50.562;7.262;2022-12-18T16:40:31;-2.50;99.90
25550;DHT22;13444;50.562;7.262;2022-12-18T16:42:56;-2.50;99.90
25550;DHT22;13444;50.562;7.262;2022-12-18T16:45:22;-2.40;99.90
25550;DHT22;13444;50.562;7.262;2022-12-18T16:47:48;-2.50;99.90
25550;DHT22;13444;50.562;7.262;2022-12-18T16:50:14;-2.40;99.90
25550;DHT22;13444;50.562;7.262;2022-12-18T16:52:40;-2.40;99.90
25550;DHT22;13444;50.562;7.262;2022-12-18T16:55:06;-2.40;99.90
25550;DHT22;13444;50.562;7.262;2022-12-18T16:57:32;-2.50;99.90
25550;DHT22;13444;50.562;7.262;2022-12-18T16:59:57;-2.40;99.90
25550;DHT22;13444;50.562;7.262;2022-12-18T17:02:25;-2.40;99.90
25550;DHT22;13444;50.562;7.262;2022-12-18T17:04:56;-2.40;99.90
25550;DHT22;13444;50.562;7.262;2022-12-18T17:07:22;-2.40;99.90
25550;DHT22;13444;50.562;7.262;2022-12-18T17:09:48;-2.40;99.90
25550;DHT22;13444;50.562;7.262;2022-12-18T17:12:16;-2.40;99.90
25550;DHT22;13444;50.562;7.262;2022-12-18T17:14:41;-2.40;99.90
25550;DHT22;13444;50.562;7.262;2022-12-18T17:17:07;-2.40;99.90
25550;DHT22;13444;50.562;7.262;2022-12-18T17:19:32;-2.40;99.90
25550;DHT22;13444;50.562;7.262;2022-12-18T17:21:58;-2.40;99.90
25550;DHT22;13444;50.562;7.262;2022-12-18T17:24:24;-2.40;99.90
25550;DHT22;13444;50.562;7.262;2022-12-18T17:26:49;-2.40;99.90
25550;DHT22;13444;50.562;7.262;2022-12-18T17:29:17;-2.40;99.90
25550;DHT22;13444;50.562;7.262;2022-12-18T17:31:44;-2.40;99.90
25550;DHT22;13444;50.562;7.262;2022-12-18T17:34:11;-2.40;99.90
25550;DHT22;13444;50.562;7.262;2022-12-18T17:36:37;-2.40;99.90
25550;DHT22;13444;50.562;7.262;2022-12-18T17:39:04;-2.50;99.90
25550;DHT22;13444;50.562;7.262;2022-12-18T17:41:30;-2.40;99.90